sensor_id;sensor_type;location;lat;lon;timestamp;pressure;altitude;pressure_sealevel;temperature;humidity
21449;BME280;10885;52.830;13.788;2023-03-29T05:26:11;101366.41;;;0.14;75.41
21449;BME280;10885;52.830;13.788;2023-03-29T05:31:40;101361.94;;;0.34;75.55
21449;BME280;10885;52.830;13.788;2023-03-29T05:37:01;101351.34;;;0.53;73.70
21449;BME280;10885;52.830;13.788;2023-03-29T05:42:32;101342.84;;;0.75;73.77
21449;BME280;10885;52.830;13.788;2023-03-29T05:47:59;101334.00;;;0.95;72.81
21449;BME280;10885;52.830;13.788;2023-03-29T05:53:22;101327.25;;;1.18;72.49
21449;BME280;10885;52.830;13.788;2023-03-29T05:58:43;101327.25;;;1.50;70.19
21449;BME280;10885;52.830;13.788;2023-03-29T06:04:06;101335.78;;;1.75;68.94
21449;BME280;10885;52.830;13.788;2023-03-29T06:09:37;101327.34;;;2.08;67.92
21449;BME280;10885;52.830;13.788;2023-03-29T06:15:00;101329.09;;;2.34;65.54
21449;BME280;10885;52.830;13.788;2023-03-29T06:20:37;101328.75;;;2.55;64.51
21449;BME280;10885;52.830;13.788;2023-03-29T06:26:05;101326.69;;;2.60;63.89
21449;BME280;10885;52.830;13.788;2023-03-29T06:31:27;101330.94;;;2.77;63.49
21449;BME280;10885;52.830;13.788;2023-03-29T06:36:50;101331.81;;;2.86;62.65
21449;BME280;10885;52.830;13.788;2023-03-29T06:42:14;101327.69;;;3.04;62.84
21449;BME280;10885;52.830;13.788;2023-03-29T06:48:03;101336.38;;;3.15;61.46
21449;BME280;10885;52.830;13.788;2023-03-29T06:53:24;101314.59;;;3.26;61.80
21449;BME280;10885;52.830;13.788;2023-03-29T06:58:52;101315.06;;;3.48;61.19
21449;BME280;10885;52.830;13.788;2023-03-29T07:04:39;101311.16;;;3.77;60.35
21449;BME280;10885;52.830;13.788;2023-03-29T07:10:11;101319.34;;;3.92;59.14
21449;BME280;10885;52.830;13.788;2023-03-29T07:16:12;101303.28;;;4.28;57.97
21449;BME280;10885;52.830;13.788;2023-03-29T07:21:52;101306.56;;;4.64;57.43
21449;BME280;10885;52.830;13.788;2023-03-29T07:27:18;101313.56;;;4.94;60.10
21449;BME280;10885;52.830;13.788;2023-03-29T07:32:43;101314.06;;;5.47;56.97
21449;BME280;10885;52.830;13.788;2023-03-29T07:38:28;101311.34;;;6.02;55.76
21449;BME280;10885;52.830;13.788;2023-03-29T07:43:55;101303.00;;;5.94;55.33
21449;BME280;10885;52.830;13.788;2023-03-29T07:49:17;101292.38;;;6.48;55.18
21449;BME280;10885;52.830;13.788;2023-03-29T07:54:41;101296.75;;;6.80;53.48
21449;BME280;10885;52.830;13.788;2023-03-29T08:00:15;101293.44;;;6.71;50.93
21449;BME280;10885;52.830;13.788;2023-03-29T08:05:48;101287.59;;;6.22;52.47
21449;BME280;10885;52.830;13.788;2023-03-29T08:11:09;101288.47;;;5.83;53.30
21449;BME280;10885;52.830;13.788;2023-03-29T08:16:51;101282.47;;;5.53;54.07
21449;BME280;10885;52.830;13.788;2023-03-29T08:22:13;101289.75;;;5.88;53.93
21449;BME280;10885;52.830;13.788;2023-03-29T08:28:00;101291.13;;;6.04;53.29
21449;BME280;10885;52.830;13.788;2023-03-29T08:33:32;101288.94;;;6.48;52.70
21449;BME280;10885;52.830;13.788;2023-03-29T08:39:13;101295.09;;;7.74;49.90
21449;BME280;10885;52.830;13.788;2023-03-29T08:45:12;101284.50;;;8.56;48.20
21449;BME280;10885;52.830;13.788;2023-03-29T08:50:39;101279.41;;;9.96;44.81
21449;BME280;10885;52.830;13.788;2023-03-29T08:56:05;101283.16;;;11.14;42.83
21449;BME280;10885;52.830;13.788;2023-03-29T09:01:49;101279.69;;;12.77;40.16
21449;BME280;10885;52.830;13.788;2023-03-29T09:07:13;101276.59;;;12.82;37.91
21449;BME280;10885;52.830;13.788;2023-03-29T09:18:09;101269.84;;;15.39;37.01
21449;BME280;10885;52.830;13.788;2023-03-29T09:29:55;101254.22;;;16.68;31.30
21449;BME280;10885;52.830;13.788;2023-03-29T09:47:08;101234.56;;;16.13;30.73
21449;BME280;10885;52.830;13.788;2023-03-29T09:52:33;101226.97;;;14.07;34.53
21449;BME280;10885;52.830;13.788;2023-03-29T09:58:15;101223.16;;;13.23;35.52
21449;BME280;10885;52.830;13.788;2023-03-29T10:03:50;101217.50;;;11.84;38.84
21449;BME280;10885;52.830;13.788;2023-03-29T10:09:14;101201.97;;;11.41;39.90
21449;BME280;10885;52.830;13.788;2023-03-29T10:14:45;101205.75;;;11.88;40.23
21449;BME280;10885;52.830;13.788;2023-03-29T10:20:18;101198.63;;;13.59;38.05
21449;BME280;10885;52.830;13.788;2023-03-29T10:25:39;101179.03;;;16.05;34.19
21449;BME280;10885;52.830;13.788;2023-03-29T10:31:02;101191.50;;;18.54;29.47
21449;BME280;10885;52.830;13.788;2023-03-29T10:36:26;101183.63;;;21.17;26.47
21449;BME280;10885;52.830;13.788;2023-03-29T10:41:49;101177.91;;;21.72;25.16
21449;BME280;10885;52.830;13.788;2023-03-29T10:47:18;101178.25;;;19.81;25.82
21449;BME280;10885;52.830;13.788;2023-03-29T10:52:39;101175.69;;;16.07;32.17
21449;BME280;10885;52.830;13.788;2023-03-29T11:03:28;101164.69;;;13.99;36.70
21449;BME280;10885;52.830;13.788;2023-03-29T11:09:00;101149.00;;;13.01;39.06
21449;BME280;10885;52.830;13.788;2023-03-29T11:20:29;101151.81;;;13.20;38.95
21449;BME280;10885;52.830;13.788;2023-03-29T11:26:07;101146.06;;;13.72;38.74
21449;BME280;10885;52.830;13.788;2023-03-29T11:42:52;101127.63;;;11.29;43.75
21449;BME280;10885;52.830;13.788;2023-03-29T11:48:20;101123.09;;;10.72;44.71
21449;BME280;10885;52.830;13.788;2023-03-29T11:59:39;101107.91;;;10.62;45.36
21449;BME280;10885;52.830;13.788;2023-03-29T12:05:08;101106.28;;;11.02;45.35
21449;BME280;10885;52.830;13.788;2023-03-29T12:10:36;101097.50;;;11.82;43.63
21449;BME280;10885;52.830;13.788;2023-03-29T12:21:31;101088.59;;;12.94;40.19
21449;BME280;10885;52.830;13.788;2023-03-29T12:38:39;101068.69;;;12.60;41.24
21449;BME280;10885;52.830;13.788;2023-03-29T12:44:21;101071.06;;;11.98;43.06
21449;BME280;10885;52.830;13.788;2023-03-29T12:49:56;101067.22;;;11.34;44.29
21449;BME280;10885;52.830;13.788;2023-03-29T12:55:30;101072.50;;;10.56;46.64
21449;BME280;10885;52.830;13.788;2023-03-29T13:01:07;101073.31;;;10.55;47.46
21449;BME280;10885;52.830;13.788;2023-03-29T13:11:52;101057.50;;;10.35;48.08
21449;BME280;10885;52.830;13.788;2023-03-29T13:23:23;101040.94;;;11.10;47.73
21449;BME280;10885;52.830;13.788;2023-03-29T13:29:10;101021.91;;;11.63;45.51
21449;BME280;10885;52.830;13.788;2023-03-29T13:46:03;101040.69;;;11.77;44.67
21449;BME280;10885;52.830;13.788;2023-03-29T13:51:31;101034.44;;;11.87;44.78
21449;BME280;10885;52.830;13.788;2023-03-29T14:02:39;101021.06;;;10.53;47.60
21449;BME280;10885;52.830;13.788;2023-03-29T14:08:12;101015.72;;;10.63;48.06
21449;BME280;10885;52.830;13.788;2023-03-29T14:13:34;101019.66;;;10.85;47.99
21449;BME280;10885;52.830;13.788;2023-03-29T14:19:03;101015.69;;;10.90;47.24
21449;BME280;10885;52.830;13.788;2023-03-29T14:24:32;101014.69;;;11.01;46.94
21449;BME280;10885;52.830;13.788;2023-03-29T14:29:54;101023.63;;;11.21;45.85
21449;BME280;10885;52.830;13.788;2023-03-29T14:35:15;101026.53;;;10.99;45.78
21449;BME280;10885;52.830;13.788;2023-03-29T14:40:36;101026.44;;;10.98;45.47
21449;BME280;10885;52.830;13.788;2023-03-29T14:45:57;101025.22;;;11.06;45.25
21449;BME280;10885;52.830;13.788;2023-03-29T14:51:22;101018.47;;;10.80;46.40
21449;BME280;10885;52.830;13.788;2023-03-29T14:56:48;101013.84;;;10.74;46.08
21449;BME280;10885;52.830;13.788;2023-03-29T15:02:25;101007.25;;;10.51;46.30
21449;BME280;10885;52.830;13.788;2023-03-29T15:07:47;101005.28;;;10.33;46.42
21449;BME280;10885;52.830;13.788;2023-03-29T15:13:14;100999.84;;;10.42;47.05
21449;BME280;10885;52.830;13.788;2023-03-29T15:18:39;101001.25;;;10.50;47.09
21449;BME280;10885;52.830;13.788;2023-03-29T15:24:03;101001.94;;;10.61;46.57
21449;BME280;10885;52.830;13.788;2023-03-29T15:29:32;101001.53;;;10.68;46.32
21449;BME280;10885;52.830;13.788;2023-03-29T15:35:05;100993.47;;;10.49;46.17
21449;BME280;10885;52.830;13.788;2023-03-29T15:40:27;100982.50;;;10.51;46.76
21449;BME280;10885;52.830;13.788;2023-03-29T15:45:48;100979.94;;;10.51;47.11
21449;BME280;10885;52.830;13.788;2023-03-29T15:51:10;100959.66;;;10.41;46.97
21449;BME280;10885;52.830;13.788;2023-03-29T15:56:33;100959.53;;;10.40;47.47
21449;BME280;10885;52.830;13.788;2023-03-29T16:01:57;100949.41;;;10.41;47.55
21449;BME280;10885;52.830;13.788;2023-03-29T16:07:18;100950.97;;;10.39;47.59
21449;BME280;10885;52.830;13.788;2023-03-29T16:12:40;100944.16;;;10.40;47.87
21449;BME280;10885;52.830;13.788;2023-03-29T16:18:02;100954.41;;;10.40;48.86
21449;BME280;10885;52.830;13.788;2023-03-29T16:23:22;100939.59;;;10.22;49.23
21449;BME280;10885;52.830;13.788;2023-03-29T16:28:43;100932.81;;;10.09;50.26
21449;BME280;10885;52.830;13.788;2023-03-29T16:34:04;100940.47;;;9.96;51.07
21449;BME280;10885;52.830;13.788;2023-03-29T16:39:25;100953.94;;;9.80;52.21
21449;BME280;10885;52.830;13.788;2023-03-29T16:44:46;100954.06;;;9.82;52.51
21449;BME280;10885;52.830;13.788;2023-03-29T16:50:08;100958.47;;;9.71;52.56
21449;BME280;10885;52.830;13.788;2023-03-29T16:55:29;100958.03;;;9.65;52.78
21449;BME280;10885;52.830;13.788;2023-03-29T17:00:50;100946.22;;;9.67;54.05
21449;BME280;10885;52.830;13.788;2023-03-29T17:06:11;100946.34;;;9.68;54.76
21449;BME280;10885;52.830;13.788;2023-03-29T17:11:32;100942.53;;;9.75;54.77
21449;BME280;10885;52.830;13.788;2023-03-29T17:16:53;100940.75;;;9.74;54.09
21449;BME280;10885;52.830;13.788;2023-03-29T17:22:14;100945.47;;;9.68;54.88
21449;BME280;10885;52.830;13.788;2023-03-29T17:27:36;100943.38;;;9.62;55.59
21449;BME280;10885;52.830;13.788;2023-03-29T17:32:57;100948.88;;;9.55;56.06
21449;BME280;10885;52.830;13.788;2023-03-29T17:38:18;100941.16;;;9.42;56.95
21449;BME280;10885;52.830;13.788;2023-03-29T17:43:39;100937.03;;;9.44;57.16
21449;BME280;10885;52.830;13.788;2023-03-29T17:49:00;100938.38;;;9.39;57.01
21449;BME280;10885;52.830;13.788;2023-03-29T17:54:21;100936.22;;;9.31;57.41
21449;BME280;10885;52.830;13.788;2023-03-29T17:59:42;100939.41;;;9.29;57.38
21449;BME280;10885;52.830;13.788;2023-03-29T18:05:03;100938.69;;;9.18;57.84
21449;BME280;10885;52.830;13.788;2023-03-29T18:10:24;100924.69;;;9.13;59.32
21449;BME280;10885;52.830;13.788;2023-03-29T18:15:45;100932.75;;;9.06;59.44
21449;BME280;10885;52.830;13.788;2023-03-29T18:21:06;100930.53;;;8.99;60.08
21449;BME280;10885;52.830;13.788;2023-03-29T18:26:30;100932.00;;;8.95;59.99
21449;BME280;10885;52.830;13.788;2023-03-29T18:31:52;100922.03;;;8.86;60.47
21449;BME280;10885;52.830;13.788;2023-03-29T18:37:13;100921.78;;;8.83;61.00
21449;BME280;10885;52.830;13.788;2023-03-29T18:42:37;100918.81;;;8.77;61.05
21449;BME280;10885;52.830;13.788;2023-03-29T18:47:58;100922.06;;;8.74;61.77
21449;BME280;10885;52.830;13.788;2023-03-29T18:53:19;100921.75;;;8.70;62.32
21449;BME280;10885;52.830;13.788;2023-03-29T18:58:40;100924.19;;;8.68;62.40
21449;BME280;10885;52.830;13.788;2023-03-29T19:04:01;100923.19;;;8.66;62.26
21449;BME280;10885;52.830;13.788;2023-03-29T19:09:22;100927.06;;;8.73;62.19
21449;BME280;10885;52.830;13.788;2023-03-29T19:14:43;100922.16;;;8.76;62.65
21449;BME280;10885;52.830;13.788;2023-03-29T19:20:04;100931.72;;;8.79;61.74
21449;BME280;10885;52.830;13.788;2023-03-29T19:25:30;100916.19;;;8.75;62.34
21449;BME280;10885;52.830;13.788;2023-03-29T19:30:51;100917.06;;;8.76;62.18
21449;BME280;10885;52.830;13.788;2023-03-29T19:36:12;100917.75;;;8.73;62.40
21449;BME280;10885;52.830;13.788;2023-03-29T19:41:33;100914.19;;;8.71;63.15
21449;BME280;10885;52.830;13.788;2023-03-29T19:46:54;100917.41;;;8.69;62.95
21449;BME280;10885;52.830;13.788;2023-03-29T19:52:15;100908.63;;;8.65;63.11
21449;BME280;10885;52.830;13.788;2023-03-29T19:57:36;100896.41;;;8.61;64.29
21449;BME280;10885;52.830;13.788;2023-03-29T20:02:57;100891.53;;;8.64;64.11
21449;BME280;10885;52.830;13.788;2023-03-29T20:08:20;100887.41;;;8.66;63.75
21449;BME280;10885;52.830;13.788;2023-03-29T20:13:42;100886.41;;;8.64;64.26
21449;BME280;10885;52.830;13.788;2023-03-29T20:19:04;100887.75;;;8.59;63.91
21449;BME280;10885;52.830;13.788;2023-03-29T20:24:28;100872.00;;;8.53;65.05
21449;BME280;10885;52.830;13.788;2023-03-29T20:29:49;100879.00;;;8.55;64.27
21449;BME280;10885;52.830;13.788;2023-03-29T20:35:10;100873.69;;;8.52;64.15
21449;BME280;10885;52.830;13.788;2023-03-29T20:40:33;100865.28;;;8.42;65.38
21449;BME280;10885;52.830;13.788;2023-03-29T20:45:53;100856.56;;;8.40;65.51
21449;BME280;10885;52.830;13.788;2023-03-29T20:51:14;100844.25;;;8.34;65.80
21449;BME280;10885;52.830;13.788;2023-03-29T20:56:38;100842.81;;;8.38;65.48
21449;BME280;10885;52.830;13.788;2023-03-29T21:01:59;100832.69;;;8.39;65.95
21449;BME280;10885;52.830;13.788;2023-03-29T21:07:20;100836.25;;;8.41;65.55
21449;BME280;10885;52.830;13.788;2023-03-29T21:12:42;100840.72;;;8.44;65.46
21449;BME280;10885;52.830;13.788;2023-03-29T21:18:02;100834.13;;;8.35;66.18
21449;BME280;10885;52.830;13.788;2023-03-29T21:23:24;100830.81;;;8.36;65.60
21449;BME280;10885;52.830;13.788;2023-03-29T21:28:45;100816.94;;;8.33;66.05
21449;BME280;10885;52.830;13.788;2023-03-29T21:34:08;100806.81;;;8.34;66.01
21449;BME280;10885;52.830;13.788;2023-03-29T22:24:39;100766.72;;;8.33;67.16
21449;BME280;10885;52.830;13.788;2023-03-29T22:30:00;100765.28;;;8.37;67.17
21449;BME280;10885;52.830;13.788;2023-03-29T22:35:21;100763.66;;;8.26;67.21
21449;BME280;10885;52.830;13.788;2023-03-29T22:40:42;100764.53;;;8.26;67.27
21449;BME280;10885;52.830;13.788;2023-03-29T22:46:04;100761.88;;;8.25;68.17
21449;BME280;10885;52.830;13.788;2023-03-29T22:51:26;100756.56;;;8.22;68.46
21449;BME280;10885;52.830;13.788;2023-03-29T22:56:46;100755.47;;;8.18;68.37
21449;BME280;10885;52.830;13.788;2023-03-29T23:02:07;100759.91;;;8.21;68.20
21449;BME280;10885;52.830;13.788;2023-03-29T23:07:28;100753.91;;;8.20;69.07
21449;BME280;10885;52.830;13.788;2023-03-29T23:12:49;100751.13;;;8.17;68.78
21449;BME280;10885;52.830;13.788;2023-03-29T23:18:10;100740.34;;;8.21;69.07
21449;BME280;10885;52.830;13.788;2023-03-29T23:23:41;100730.00;;;8.20;69.01
21449;BME280;10885;52.830;13.788;2023-03-29T23:29:02;100726.81;;;8.22;69.17
21449;BME280;10885;52.830;13.788;2023-03-29T23:34:24;100727.69;;;8.23;69.01
21449;BME280;10885;52.830;13.788;2023-03-29T23:39:45;100727.13;;;8.27;69.10
